Time;durP1;ratioP1;P1;durP2;ratioP2;P2;SDS_P1;SDS_P2;PMS_P1;PMS_P2;Temp;Humidity;BMP_temperature;BMP_pressure;BME280_temperature;BME280_humidity;BME280_pressure;Samples;Min_cycle;Max_cycle;Signal;HPM_P1;HPM_P2
2023/09/22 00:01:20;;;;;;;1.83;1.00;;;;;;;;;;10384667;22;20364;-71
2023/09/22 00:05:23;;;;;;;3.42;1.35;;;;;;;;;;10357650;22;20113;-70
2023/09/22 00:09:23;;;;;;;2.13;0.90;;;;;;;;;;10382539;22;20482;-71
2023/09/22 00:13:24;;;;;;;1.42;1.00;;;;;;;;;;10383889;22;20018;-70
2023/09/22 00:17:25;;;;;;;1.50;1.10;;;;;;;;;;10353446;22;20046;-71
2023/09/22 00:21:25;;;;;;;2.30;1.42;;;;;;;;;;10378649;22;20229;-71
2023/09/22 00:25:25;;;;;;;2.90;1.30;;;;;;;;;;10380887;22;20077;-72
2023/09/22 00:29:25;;;;;;;1.50;1.17;;;;;;;;;;10376224;22;20069;-71
2023/09/22 00:33:26;;;;;;;3.80;1.00;;;;;;;;;;10380488;22;20098;-71
2023/09/22 00:37:28;;;;;;;2.47;1.00;;;;;;;;;;10379657;22;19999;-71
2023/09/22 00:41:28;;;;;;;1.73;1.20;;;;;;;;;;10379140;22;20057;-71
2023/09/22 00:45:28;;;;;;;1.02;1.00;;;;;;;;;;10383641;22;20015;-71
2023/09/22 00:49:29;;;;;;;1.97;0.90;;;;;;;;;;10380654;22;20007;-70
2023/09/22 00:53:33;;;;;;;3.75;1.15;;;;;;;;;;10381391;22;20007;-71
2023/09/22 00:57:33;;;;;;;1.73;1.00;;;;;;;;;;10384271;22;20003;-71
2023/09/22 01:01:33;;;;;;;1.20;0.90;;;;;;;;;;10380112;22;20119;-71
2023/09/22 01:05:33;;;;;;;1.20;1.10;;;;;;;;;;10385462;22;20222;-71
2023/09/22 01:09:34;;;;;;;2.25;1.30;;;;;;;;;;10383471;22;20003;-71
2023/09/22 01:13:34;;;;;;;0.90;0.90;;;;;;;;;;10383289;22;20404;-71
2023/09/22 01:17:34;;;;;;;1.90;1.08;;;;;;;;;;10381414;22;20440;-71
2023/09/22 01:21:35;;;;;;;3.08;1.38;;;;;;;;;;10378375;22;20312;-72
2023/09/22 01:25:36;;;;;;;3.33;1.20;;;;;;;;;;10383005;22;20015;-71
2023/09/22 01:29:37;;;;;;;1.20;1.08;;;;;;;;;;10385111;22;20003;-71
2023/09/22 01:33:39;;;;;;;1.08;0.80;;;;;;;;;;10381459;22;20019;-71
2023/09/22 01:37:50;;;;;;;3.95;1.00;;;;;;;;;;10384410;22;19995;-71
2023/09/22 01:41:50;;;;;;;1.48;0.90;;;;;;;;;;10384193;22;20003;-71
2023/09/22 01:45:51;;;;;;;2.03;0.90;;;;;;;;;;10383155;22;21058;-71
2023/09/22 01:49:51;;;;;;;1.30;0.90;;;;;;;;;;10382427;22;21040;-71
2023/09/22 01:53:52;;;;;;;1.83;0.90;;;;;;;;;;10382628;22;20007;-70
2023/09/22 01:57:52;;;;;;;1.33;0.90;;;;;;;;;;10382187;22;20164;-71
2023/09/22 02:01:52;;;;;;;2.10;0.97;;;;;;;;;;10381169;22;20012;-70
2023/09/22 02:05:52;;;;;;;1.25;0.98;;;;;;;;;;10378429;22;20007;-71
2023/09/22 02:09:53;;;;;;;1.98;1.00;;;;;;;;;;10381831;22;20007;-71
2023/09/22 02:13:54;;;;;;;0.98;0.90;;;;;;;;;;10377097;22;20013;-71
2023/09/22 02:17:54;;;;;;;1.10;1.00;;;;;;;;;;10383627;22;20011;-71
2023/09/22 02:21:55;;;;;;;1.20;1.10;;;;;;;;;;10376362;22;20034;-71
2023/09/22 02:25:55;;;;;;;1.20;1.10;;;;;;;;;;10383923;22;20011;-71
2023/09/22 02:29:55;;;;;;;1.10;1.00;;;;;;;;;;10380653;22;19999;-71
2023/09/22 02:33:55;;;;;;;1.40;0.90;;;;;;;;;;10379115;22;20011;-72
2023/09/22 02:37:55;;;;;;;1.80;1.13;;;;;;;;;;10380716;22;20013;-70
2023/09/22 02:41:56;;;;;;;1.10;0.95;;;;;;;;;;10383238;22;20019;-71
2023/09/22 02:45:56;;;;;;;1.50;1.10;;;;;;;;;;10380721;22;20865;-71
2023/09/22 02:49:56;;;;;;;2.33;1.10;;;;;;;;;;10384494;22;20170;-71
2023/09/22 02:53:56;;;;;;;1.20;1.10;;;;;;;;;;10383051;22;20007;-72
2023/09/22 02:57:56;;;;;;;2.08;1.00;;;;;;;;;;10382621;22;20968;-71
2023/09/22 03:02:00;;;;;;;1.37;1.10;;;;;;;;;;10380120;22;20018;-71
2023/09/22 03:06:00;;;;;;;2.00;1.03;;;;;;;;;;10381767;22;20017;-71
2023/09/22 03:10:00;;;;;;;1.55;1.20;;;;;;;;;;10381447;22;20255;-71
2023/09/22 03:14:00;;;;;;;2.13;1.20;;;;;;;;;;10375849;22;20685;-71
2023/09/22 03:18:01;;;;;;;1.20;1.10;;;;;;;;;;10375732;22;20015;-71
2023/09/22 03:22:01;;;;;;;3.92;1.15;;;;;;;;;;10379748;22;20019;-71
2023/09/22 03:26:04;;;;;;;2.03;1.00;;;;;;;;;;10378145;22;20039;-71
2023/09/22 03:30:06;;;;;;;2.33;1.00;;;;;;;;;;10378821;22;20814;-71
2023/09/22 03:34:06;;;;;;;2.55;1.02;;;;;;;;;;10381738;22;20011;-71
2023/09/22 03:38:09;;;;;;;3.20;0.90;;;;;;;;;;10377878;22;20466;-71
2023/09/22 03:42:10;;;;;;;2.35;1.00;;;;;;;;;;10380916;22;20097;-71
2023/09/22 03:46:10;;;;;;;1.75;0.90;;;;;;;;;;10380958;22;20099;-71
2023/09/22 03:50:10;;;;;;;2.95;1.00;;;;;;;;;;10382651;22;20098;-71
2023/09/22 03:54:10;;;;;;;2.63;1.15;;;;;;;;;;10380462;22;20083;-71
2023/09/22 03:58:11;;;;;;;2.30;1.00;;;;;;;;;;10378465;22;20038;-71
2023/09/22 04:02:11;;;;;;;3.85;1.00;;;;;;;;;;10376225;22;20046;-71
2023/09/22 04:06:11;;;;;;;2.60;0.98;;;;;;;;;;10380165;22;20034;-70
2023/09/22 04:10:11;;;;;;;1.40;0.90;;;;;;;;;;10378789;22;20578;-71
2023/09/22 04:14:12;;;;;;;1.42;0.95;;;;;;;;;;10375682;22;20238;-72
2023/09/22 04:18:13;;;;;;;1.60;1.00;;;;;;;;;;10378498;22;20116;-71
2023/09/22 04:22:16;;;;;;;1.98;0.88;;;;;;;;;;10373975;22;20280;-71
2023/09/22 04:26:16;;;;;;;2.10;0.80;;;;;;;;;;10376327;22;20014;-70
2023/09/22 04:30:17;;;;;;;1.15;0.95;;;;;;;;;;10376520;22;20729;-71
2023/09/22 04:34:18;;;;;;;1.80;0.93;;;;;;;;;;10380929;22;20818;-70
2023/09/22 04:38:18;;;;;;;1.10;0.98;;;;;;;;;;10381292;22;21044;-71
2023/09/22 04:42:19;;;;;;;1.30;1.20;;;;;;;;;;10381301;22;20476;-71
2023/09/22 04:46:19;;;;;;;1.98;1.10;;;;;;;;;;10388961;22;20615;-71
2023/09/22 04:50:21;;;;;;;2.40;1.00;;;;;;;;;;10394111;22;20010;-71
2023/09/22 04:54:21;;;;;;;0.98;0.90;;;;;;;;;;10381693;22;20406;-70
2023/09/22 04:58:21;;;;;;;0.82;0.80;;;;;;;;;;10380082;22;20003;-70
2023/09/22 05:02:21;;;;;;;1.00;0.90;;;;;;;;;;10379040;22;20011;-75
2023/09/22 05:06:22;;;;;;;1.80;0.73;;;;;;;;;;10383949;22;20622;-75
2023/09/22 05:10:22;;;;;;;2.08;0.90;;;;;;;;;;10386131;22;20226;-75
2023/09/22 05:14:23;;;;;;;1.48;0.70;;;;;;;;;;10381961;22;20070;-75
2023/09/22 05:18:23;;;;;;;2.20;0.70;;;;;;;;;;10383493;22;20015;-74
2023/09/22 05:22:23;;;;;;;1.20;1.00;;;;;;;;;;10382239;22;20229;-74
2023/09/22 05:26:25;;;;;;;1.95;0.82;;;;;;;;;;10383310;22;20470;-74
2023/09/22 05:30:25;;;;;;;1.52;0.75;;;;;;;;;;10382499;22;20762;-75
2023/09/22 05:34:25;;;;;;;1.23;0.70;;;;;;;;;;10385401;22;20372;-74
2023/09/22 05:38:27;;;;;;;5.65;0.85;;;;;;;;;;10389254;22;20666;-74
2023/09/22 05:42:28;;;;;;;2.65;0.73;;;;;;;;;;10389250;22;20009;-73
2023/09/22 05:46:31;;;;;;;0.70;0.70;;;;;;;;;;10388931;22;20019;-74
2023/09/22 05:50:31;;;;;;;1.67;0.83;;;;;;;;;;10389884;22;20025;-74
2023/09/22 05:54:31;;;;;;;0.87;0.70;;;;;;;;;;10387300;22;20254;-74
2023/09/22 05:58:33;;;;;;;2.95;0.80;;;;;;;;;;10387409;22;19999;-74
2023/09/22 06:02:33;;;;;;;1.05;0.80;;;;;;;;;;10384597;22;20054;-74
2023/09/22 06:06:34;;;;;;;1.48;1.08;;;;;;;;;;10386876;22;20003;-75
2023/09/22 06:10:34;;;;;;;2.55;0.80;;;;;;;;;;10387686;22;19999;-74
2023/09/22 06:14:34;;;;;;;4.90;0.90;;;;;;;;;;10359550;22;20046;-74
2023/09/22 06:18:34;;;;;;;2.20;0.90;;;;;;;;;;10387607;22;20679;-73
2023/09/22 06:22:35;;;;;;;1.80;0.98;;;;;;;;;;10384907;22;20011;-73
2023/09/22 06:26:36;;;;;;;1.53;0.90;;;;;;;;;;10386002;22;20014;-73
2023/09/22 06:30:36;;;;;;;0.82;0.60;;;;;;;;;;10381599;22;20234;-73
2023/09/22 06:34:36;;;;;;;0.87;0.77;;;;;;;;;;10385107;22;20010;-73
2023/09/22 06:38:36;;;;;;;2.43;0.90;;;;;;;;;;10388830;22;20003;-73
2023/09/22 06:42:38;;;;;;;1.80;0.82;;;;;;;;;;10384403;22;20015;-73
2023/09/22 06:46:40;;;;;;;2.28;0.82;;;;;;;;;;10384047;22;20363;-72
2023/09/22 06:50:40;;;;;;;1.52;0.95;;;;;;;;;;10382919;22;20904;-73
2023/09/22 06:54:40;;;;;;;4.03;0.90;;;;;;;;;;10386956;22;20090;-72
2023/09/22 06:58:40;;;;;;;2.15;0.90;;;;;;;;;;10384505;22;19996;-72
2023/09/22 07:02:42;;;;;;;3.50;0.80;;;;;;;;;;10381635;22;20019;-73
2023/09/22 07:06:42;;;;;;;1.13;0.70;;;;;;;;;;10385950;22;20413;-73
2023/09/22 07:10:42;;;;;;;2.28;0.80;;;;;;;;;;10381653;22;20117;-73
2023/09/22 07:14:42;;;;;;;0.90;0.77;;;;;;;;;;10387302;22;20030;-73
2023/09/22 07:18:43;;;;;;;2.25;0.80;;;;;;;;;;10379635;22;20015;-73
2023/09/22 07:22:44;;;;;;;2.00;0.90;;;;;;;;;;10382883;22;20010;-73
2023/09/22 07:26:44;;;;;;;1.55;0.90;;;;;;;;;;10383540;22;19999;-73
2023/09/22 07:30:45;;;;;;;2.77;0.97;;;;;;;;;;10380170;22;20156;-72
2023/09/22 07:34:46;;;;;;;3.42;0.85;;;;;;;;;;10382934;22;20120;-72
2023/09/22 07:38:46;;;;;;;1.67;0.80;;;;;;;;;;10382290;22;20543;-72
2023/09/22 07:42:46;;;;;;;1.40;0.90;;;;;;;;;;10383927;22;20041;-73
2023/09/22 07:46:47;;;;;;;0.95;0.75;;;;;;;;;;10383708;22;20015;-73
2023/09/22 07:50:47;;;;;;;1.58;0.73;;;;;;;;;;10382464;22;20428;-73
2023/09/22 07:54:48;;;;;;;6.35;1.00;;;;;;;;;;10383348;22;20089;-73
2023/09/22 07:58:48;;;;;;;1.98;0.73;;;;;;;;;;10392102;22;20013;-72
2023/09/22 08:02:50;;;;;;;1.30;0.80;;;;;;;;;;10383218;22;20126;-74
2023/09/22 08:06:50;;;;;;;2.22;0.80;;;;;;;;;;10380572;22;20003;-73
2023/09/22 08:10:50;;;;;;;2.33;0.90;;;;;;;;;;10380208;22;20003;-73
2023/09/22 08:14:51;;;;;;;1.85;0.95;;;;;;;;;;10376608;22;20401;-73
2023/09/22 08:18:51;;;;;;;1.00;0.70;;;;;;;;;;10377863;22;20034;-74
2023/09/22 08:22:51;;;;;;;2.08;0.75;;;;;;;;;;10377934;22;20019;-73
2023/09/22 08:26:51;;;;;;;1.95;0.90;;;;;;;;;;10381999;22;20460;-73
2023/09/22 08:30:56;;;;;;;2.30;0.90;;;;;;;;;;10381447;22;20022;-73
2023/09/22 08:34:56;;;;;;;1.33;0.60;;;;;;;;;;10381052;22;20296;-73
2023/09/22 08:38:56;;;;;;;1.20;0.77;;;;;;;;;;10383183;22;20034;-73
2023/09/22 08:42:57;;;;;;;3.07;0.90;;;;;;;;;;10384819;22;20030;-73
2023/09/22 08:46:57;;;;;;;3.00;1.10;;;;;;;;;;10379459;22;20043;-73
2023/09/22 08:50:58;;;;;;;4.10;0.93;;;;;;;;;;10382684;22;20018;-73
2023/09/22 08:55:00;;;;;;;3.30;0.90;;;;;;;;;;10380182;22;20003;-74
2023/09/22 08:59:00;;;;;;;4.03;0.80;;;;;;;;;;10380063;22;20015;-73
2023/09/22 09:03:09;;;;;;;2.77;1.07;;;;;;;;;;10378211;22;20015;-73
2023/09/22 09:07:09;;;;;;;2.40;0.95;;;;;;;;;;10383265;22;20003;-73
2023/09/22 09:11:10;;;;;;;3.40;1.00;;;;;;;;;;10381544;22;20046;-73
2023/09/22 09:15:11;;;;;;;3.03;1.08;;;;;;;;;;10381574;22;20004;-74
2023/09/22 09:19:13;;;;;;;2.30;0.75;;;;;;;;;;10382454;22;20078;-73
2023/09/22 09:23:19;;;;;;;4.43;1.05;;;;;;;;;;10383530;22;20018;-73
2023/09/22 09:27:21;;;;;;;1.00;0.90;;;;;;;;;;10381157;22;20599;-73
2023/09/22 09:31:41;;;;;;;3.20;1.30;;;;;;;;;;10381808;22;20329;-73
2023/09/22 09:35:41;;;;;;;1.67;1.00;;;;;;;;;;10368680;22;20085;-73
2023/09/22 09:39:43;;;;;;;2.72;0.90;;;;;;;;;;10385760;22;20008;-74
2023/09/22 09:43:46;;;;;;;1.92;0.75;;;;;;;;;;10385409;22;20098;-73
2023/09/22 09:47:48;;;;;;;3.83;0.95;;;;;;;;;;10380965;22;20441;-72
2023/09/22 09:51:49;;;;;;;2.28;1.02;;;;;;;;;;10369906;22;20011;-73
2023/09/22 09:55:49;;;;;;;2.53;1.10;;;;;;;;;;10379277;22;20395;-73
2023/09/22 09:59:52;;;;;;;2.60;0.75;;;;;;;;;;10379776;22;20053;-73
2023/09/22 10:03:52;;;;;;;4.10;1.13;;;;;;;;;;10369797;22;20022;-73
2023/09/22 10:07:56;;;;;;;1.92;1.00;;;;;;;;;;10383905;22;20043;-73
2023/09/22 10:11:56;;;;;;;4.13;1.10;;;;;;;;;;10382152;22;20765;-72
2023/09/22 10:16:00;;;;;;;2.75;1.13;;;;;;;;;;10380000;22;20698;-73
2023/09/22 10:20:04;;;;;;;6.82;1.10;;;;;;;;;;10377121;22;20613;-73
2023/09/22 10:24:38;;;;;;;3.67;1.10;;;;;;;;;;10382550;22;20042;-73
2023/09/22 10:28:39;;;;;;;;;;;;;;;;;;10329718;22;20859;-72
2023/09/22 10:32:39;;;;;;;4.43;1.35;;;;;;;;;;10372408;22;19917;-70
2023/09/22 10:36:46;;;;;;;4.93;1.13;;;;;;;;;;10380441;22;20113;-70
2023/09/22 10:40:59;;;;;;;2.25;1.08;;;;;;;;;;10375684;22;20447;-70
2023/09/22 10:44:59;;;;;;;2.58;0.95;;;;;;;;;;10380493;22;20110;-70
2023/09/22 10:49:00;;;;;;;3.13;0.88;;;;;;;;;;10379079;22;20015;-71
2023/09/22 10:53:02;;;;;;;1.63;0.90;;;;;;;;;;10378413;22;20049;-71
2023/09/22 10:57:03;;;;;;;3.85;1.45;;;;;;;;;;10378622;22;20000;-70
2023/09/22 11:01:08;;;;;;;2.45;1.13;;;;;;;;;;10376232;22;20007;-70
2023/09/22 11:05:10;;;;;;;3.88;1.15;;;;;;;;;;10380296;22;20006;-70
2023/09/22 11:09:11;;;;;;;2.75;1.20;;;;;;;;;;10381817;22;20042;-70
2023/09/22 11:13:13;;;;;;;2.88;1.00;;;;;;;;;;10377584;22;20000;-71
2023/09/22 11:17:13;;;;;;;1.10;1.00;;;;;;;;;;10372071;22;20016;-71
2023/09/22 11:21:14;;;;;;;2.10;0.95;;;;;;;;;;10377316;22;20039;-70
2023/09/22 11:25:14;;;;;;;1.75;0.90;;;;;;;;;;10375583;22;20044;-71
2023/09/22 11:29:17;;;;;;;3.63;1.15;;;;;;;;;;10376107;22;20007;-71
2023/09/22 11:33:18;;;;;;;4.35;1.25;;;;;;;;;;10375730;22;20587;-70
2023/09/22 11:37:30;;;;;;;2.33;1.00;;;;;;;;;;10377697;22;19999;-71
2023/09/22 11:41:32;;;;;;;2.88;1.02;;;;;;;;;;10377010;22;20109;-70
2023/09/22 11:45:33;;;;;;;5.10;1.08;;;;;;;;;;10380024;22;20523;-70
2023/09/22 11:49:36;;;;;;;1.67;0.90;;;;;;;;;;10380698;22;20003;-71
2023/09/22 11:53:36;;;;;;;;;;;;;;;;;;10380041;22;20009;-70
2023/09/22 11:57:36;;;;;;;2.33;0.90;;;;;;;;;;10381452;22;19914;-70
2023/09/22 12:01:37;;;;;;;3.25;1.08;;;;;;;;;;10377400;22;20544;-70
2023/09/22 12:05:37;;;;;;;0.85;0.80;;;;;;;;;;10380012;22;20704;-70
2023/09/22 12:09:40;;;;;;;1.33;0.80;;;;;;;;;;10379771;22;20889;-70
2023/09/22 12:13:40;;;;;;;2.30;1.00;;;;;;;;;;10379549;22;20027;-70
2023/09/22 12:17:41;;;;;;;0.82;0.80;;;;;;;;;;10376787;22;20012;-71
2023/09/22 12:21:41;;;;;;;1.97;0.80;;;;;;;;;;10378918;22;19999;-71
2023/09/22 12:25:41;;;;;;;3.20;1.10;;;;;;;;;;10364739;22;19999;-70
2023/09/22 12:29:43;;;;;;;2.17;0.80;;;;;;;;;;10377708;22;19999;-71
2023/09/22 12:33:43;;;;;;;1.70;1.10;;;;;;;;;;10377148;22;20015;-70
2023/09/22 12:37:44;;;;;;;2.67;1.10;;;;;;;;;;10377891;22;19999;-71
2023/09/22 12:41:44;;;;;;;1.38;1.00;;;;;;;;;;10379120;22;20078;-71
2023/09/22 12:45:44;;;;;;;2.15;0.95;;;;;;;;;;10372721;22;20588;-71
2023/09/22 12:49:45;;;;;;;5.07;1.00;;;;;;;;;;10378925;22;19999;-71
2023/09/22 12:53:45;;;;;;;1.13;0.90;;;;;;;;;;10384635;22;20050;-70
2023/09/22 12:57:45;;;;;;;2.45;0.90;;;;;;;;;;10384474;22;20003;-71
2023/09/22 13:01:45;;;;;;;6.18;0.90;;;;;;;;;;10383021;22;20015;-71
2023/09/22 13:05:45;;;;;;;1.65;0.93;;;;;;;;;;10380309;22;20082;-70
2023/09/22 13:09:46;;;;;;;2.92;0.98;;;;;;;;;;10374075;22;19999;-74
2023/09/22 13:13:47;;;;;;;2.65;0.90;;;;;;;;;;10377119;22;20042;-70
2023/09/22 13:17:48;;;;;;;3.38;1.10;;;;;;;;;;10368772;22;20011;-73
2023/09/22 13:21:49;;;;;;;2.85;1.17;;;;;;;;;;10380267;22;20023;-72
2023/09/22 13:25:50;;;;;;;3.05;1.08;;;;;;;;;;10378517;22;20007;-73
2023/09/22 13:29:50;;;;;;;1.85;0.85;;;;;;;;;;10362017;22;20011;-73
2023/09/22 13:33:50;;;;;;;2.08;0.93;;;;;;;;;;10377572;22;20088;-72
2023/09/22 13:37:51;;;;;;;2.10;1.00;;;;;;;;;;10377552;22;20003;-73
2023/09/22 13:41:51;;;;;;;1.88;0.90;;;;;;;;;;10378737;22;20009;-72
2023/09/22 13:45:52;;;;;;;2.08;0.88;;;;;;;;;;10377763;22;20724;-73
2023/09/22 13:49:52;;;;;;;2.13;0.87;;;;;;;;;;10350977;22;20034;-72
2023/09/22 13:53:52;;;;;;;2.33;1.00;;;;;;;;;;10378869;22;20003;-73
2023/09/22 13:57:52;;;;;;;2.17;0.90;;;;;;;;;;10382717;22;20003;-72
2023/09/22 14:01:53;;;;;;;3.45;0.93;;;;;;;;;;10376206;22;20495;-72
2023/09/22 14:05:53;;;;;;;2.07;1.00;;;;;;;;;;10382457;22;20082;-72
2023/09/22 14:09:54;;;;;;;2.53;1.10;;;;;;;;;;10382014;22;20241;-73
2023/09/22 14:13:54;;;;;;;2.95;1.15;;;;;;;;;;10381883;22;20110;-72
2023/09/22 14:17:56;;;;;;;2.50;1.00;;;;;;;;;;10380501;22;20023;-72
2023/09/22 14:21:57;;;;;;;2.13;1.02;;;;;;;;;;10378230;22;20093;-72
2023/09/22 14:25:58;;;;;;;2.83;1.00;;;;;;;;;;10378772;22;20007;-72
2023/09/22 14:30:00;;;;;;;1.83;0.95;;;;;;;;;;10379931;22;20658;-73
2023/09/22 14:34:00;;;;;;;3.03;1.20;;;;;;;;;;10345358;22;20848;-73
2023/09/22 14:38:00;;;;;;;1.77;1.10;;;;;;;;;;10376518;22;20003;-73
2023/09/22 14:42:01;;;;;;;1.35;0.80;;;;;;;;;;10375919;22;20034;-72
2023/09/22 14:46:01;;;;;;;3.22;1.00;;;;;;;;;;10376683;22;20008;-73
2023/09/22 14:50:02;;;;;;;3.05;1.10;;;;;;;;;;10380524;22;20598;-72
2023/09/22 14:54:02;;;;;;;2.57;1.00;;;;;;;;;;10378332;22;20125;-72
2023/09/22 14:58:02;;;;;;;1.75;0.90;;;;;;;;;;10379975;22;19999;-72
2023/09/22 15:02:02;;;;;;;1.98;1.02;;;;;;;;;;10377065;22;20081;-73
2023/09/22 15:06:03;;;;;;;2.55;0.90;;;;;;;;;;10383456;22;20102;-73
2023/09/22 15:10:05;;;;;;;2.50;1.00;;;;;;;;;;10386351;22;20698;-72
2023/09/22 15:14:05;;;;;;;3.38;1.05;;;;;;;;;;10382360;22;20586;-72
2023/09/22 15:18:05;;;;;;;1.80;0.90;;;;;;;;;;10378992;22;20125;-73
2023/09/22 15:22:05;;;;;;;2.08;1.00;;;;;;;;;;10383209;22;20031;-72
2023/09/22 15:26:06;;;;;;;2.17;1.00;;;;;;;;;;10380136;22;20039;-72
2023/09/22 15:30:06;;;;;;;1.95;0.85;;;;;;;;;;10377206;22;20229;-70
2023/09/22 15:34:07;;;;;;;3.38;1.35;;;;;;;;;;10378235;22;20003;-72
2023/09/22 15:38:13;;;;;;;2.45;1.00;;;;;;;;;;10379470;22;19995;-72
2023/09/22 15:42:14;;;;;;;2.28;1.13;;;;;;;;;;10379388;22;20015;-72
2023/09/22 15:46:14;;;;;;;2.57;0.90;;;;;;;;;;10382715;22;20118;-72
2023/09/22 15:50:15;;;;;;;1.85;0.90;;;;;;;;;;10379307;22;20036;-73
2023/09/22 15:54:15;;;;;;;1.20;1.10;;;;;;;;;;10375309;22;20464;-72
2023/09/22 15:58:15;;;;;;;4.60;1.00;;;;;;;;;;10364289;22;20061;-73
2023/09/22 16:02:16;;;;;;;2.47;0.88;;;;;;;;;;10376589;22;20032;-72
2023/09/22 16:06:16;;;;;;;3.00;1.08;;;;;;;;;;10378185;22;20600;-72
2023/09/22 16:10:19;;;;;;;4.23;1.30;;;;;;;;;;10380891;22;20014;-72
2023/09/22 16:14:19;;;;;;;2.85;0.90;;;;;;;;;;10382263;22;20010;-72
2023/09/22 16:18:19;;;;;;;5.57;0.80;;;;;;;;;;10377363;22;20011;-73
2023/09/22 16:22:20;;;;;;;1.73;0.60;;;;;;;;;;10383621;22;20004;-73
2023/09/22 16:26:20;;;;;;;1.13;0.60;;;;;;;;;;10382978;22;20014;-73
2023/09/22 16:30:20;;;;;;;1.13;0.70;;;;;;;;;;10385791;22;20077;-72
2023/09/22 16:34:21;;;;;;;2.88;0.80;;;;;;;;;;10389037;22;20010;-72
2023/09/22 16:38:21;;;;;;;1.27;0.70;;;;;;;;;;10387847;22;20074;-72
2023/09/22 16:42:21;;;;;;;1.88;0.75;;;;;;;;;;10381836;22;20078;-72
2023/09/22 16:46:22;;;;;;;1.92;0.70;;;;;;;;;;10382588;22;20011;-72
2023/09/22 16:50:23;;;;;;;0.85;0.50;;;;;;;;;;10386662;22;20003;-72
2023/09/22 16:54:23;;;;;;;0.75;0.50;;;;;;;;;;10386294;22;20010;-73
2023/09/22 16:58:24;;;;;;;0.95;0.47;;;;;;;;;;10386260;22;20014;-74
2023/09/22 17:02:24;;;;;;;2.30;0.70;;;;;;;;;;10383836;22;20023;-72
2023/09/22 17:06:25;;;;;;;1.67;0.55;;;;;;;;;;10389379;22;20084;-73
2023/09/22 17:10:25;;;;;;;0.93;0.50;;;;;;;;;;10386311;22;19999;-72
2023/09/22 17:14:25;;;;;;;2.08;0.50;;;;;;;;;;10387985;22;20006;-72
2023/09/22 17:18:26;;;;;;;0.60;0.60;;;;;;;;;;10387898;22;20019;-72
2023/09/22 17:22:27;;;;;;;2.25;1.05;;;;;;;;;;10387497;22;20102;-72
2023/09/22 17:26:28;;;;;;;2.78;0.80;;;;;;;;;;10385481;22;20046;-72
2023/09/22 17:30:28;;;;;;;1.80;0.60;;;;;;;;;;10384726;22;20015;-72
2023/09/22 17:34:28;;;;;;;0.98;0.77;;;;;;;;;;10387950;22;19999;-72
2023/09/22 17:38:30;;;;;;;0.73;0.68;;;;;;;;;;10386848;22;20006;-72
2023/09/22 17:42:30;;;;;;;3.60;0.65;;;;;;;;;;10383367;22;20030;-72
2023/09/22 17:46:30;;;;;;;2.22;0.75;;;;;;;;;;10383380;22;20594;-72
2023/09/22 17:50:32;;;;;;;0.97;0.60;;;;;;;;;;10381709;22;20023;-72
2023/09/22 17:54:32;;;;;;;1.00;0.63;;;;;;;;;;10383298;22;20003;-72
2023/09/22 17:58:33;;;;;;;0.80;0.60;;;;;;;;;;10387848;22;20057;-72
2023/09/22 18:02:33;;;;;;;0.52;0.52;;;;;;;;;;10383877;22;20019;-72
2023/09/22 18:06:34;;;;;;;2.28;0.70;;;;;;;;;;10384351;22;20026;-73
2023/09/22 18:10:36;;;;;;;1.27;0.75;;;;;;;;;;10385936;22;20007;-72
2023/09/22 18:14:37;;;;;;;1.42;0.70;;;;;;;;;;10386966;22;20458;-73
2023/09/22 18:18:37;;;;;;;1.25;0.50;;;;;;;;;;10385162;22;20011;-72
2023/09/22 18:22:37;;;;;;;1.20;0.70;;;;;;;;;;10386224;22;20003;-71
2023/09/22 18:26:37;;;;;;;1.13;0.80;;;;;;;;;;10382846;22;20140;-72
2023/09/22 18:30:38;;;;;;;1.48;0.68;;;;;;;;;;10382753;22;20022;-71
2023/09/22 18:34:38;;;;;;;1.13;0.53;;;;;;;;;;10385989;22;20054;-71
2023/09/22 18:38:38;;;;;;;1.77;0.80;;;;;;;;;;10387390;22;20003;-72
2023/09/22 18:42:38;;;;;;;1.67;0.70;;;;;;;;;;10381276;22;19995;-71
2023/09/22 18:46:39;;;;;;;1.02;0.65;;;;;;;;;;10382887;22;20474;-71
2023/09/22 18:50:47;;;;;;;2.05;0.60;;;;;;;;;;10381392;22;20014;-71
2023/09/22 18:54:48;;;;;;;1.55;0.70;;;;;;;;;;10379146;22;20003;-71
2023/09/22 18:58:49;;;;;;;1.00;0.68;;;;;;;;;;10375241;22;20010;-72
2023/09/22 19:02:50;;;;;;;3.65;0.80;;;;;;;;;;10375631;22;20015;-72
2023/09/22 19:06:50;;;;;;;2.90;0.65;;;;;;;;;;10376945;22;20006;-71
2023/09/22 19:10:51;;;;;;;1.17;0.70;;;;;;;;;;10377403;22;20073;-71
2023/09/22 19:14:51;;;;;;;2.42;0.68;;;;;;;;;;10381355;22;20266;-71
2023/09/22 19:18:52;;;;;;;0.63;0.63;;;;;;;;;;10377852;22;20022;-72
2023/09/22 19:22:52;;;;;;;0.60;0.60;;;;;;;;;;10379426;22;20237;-72
2023/09/22 19:26:52;;;;;;;2.67;0.73;;;;;;;;;;10375605;22;20049;-72
2023/09/22 19:30:56;;;;;;;0.90;0.68;;;;;;;;;;10378557;22;20039;-71
2023/09/22 19:35:03;;;;;;;1.13;0.60;;;;;;;;;;10380446;22;19999;-72
2023/09/22 19:39:04;;;;;;;0.65;0.65;;;;;;;;;;10377527;22;20002;-72
2023/09/22 19:43:04;;;;;;;0.70;0.70;;;;;;;;;;10378051;22;20031;-72
2023/09/22 19:47:04;;;;;;;1.27;0.65;;;;;;;;;;10349719;22;20166;-72
2023/09/22 19:51:06;;;;;;;0.80;0.57;;;;;;;;;;10373191;22;20088;-71
2023/09/22 19:55:06;;;;;;;1.58;0.57;;;;;;;;;;10375903;22;20003;-71
2023/09/22 19:59:08;;;;;;;0.82;0.60;;;;;;;;;;10378827;22;20006;-71
2023/09/22 20:03:09;;;;;;;1.35;0.60;;;;;;;;;;10377087;22;20019;-72
2023/09/22 20:07:09;;;;;;;2.50;0.70;;;;;;;;;;10377859;22;20038;-72
2023/09/22 20:11:09;;;;;;;0.95;0.73;;;;;;;;;;10376853;22;20103;-71
2023/09/22 20:15:13;;;;;;;2.35;0.70;;;;;;;;;;10374671;22;20342;-71
2023/09/22 20:19:13;;;;;;;1.10;0.60;;;;;;;;;;10377091;22;20062;-71
2023/09/22 20:23:13;;;;;;;1.00;0.63;;;;;;;;;;10377382;22;20031;-72
2023/09/22 20:27:15;;;;;;;1.25;0.77;;;;;;;;;;10378738;22;20035;-71
2023/09/22 20:31:15;;;;;;;1.77;0.70;;;;;;;;;;10372118;22;20450;-71
2023/09/22 20:35:15;;;;;;;3.60;0.93;;;;;;;;;;10378413;22;20011;-71
2023/09/22 20:39:15;;;;;;;1.10;0.60;;;;;;;;;;10376891;22;20006;-71
2023/09/22 20:43:16;;;;;;;0.65;0.63;;;;;;;;;;10378733;22;20267;-71
2023/09/22 20:47:16;;;;;;;0.80;0.68;;;;;;;;;;10376022;22;20015;-70
2023/09/22 20:51:17;;;;;;;0.85;0.63;;;;;;;;;;10376116;22;20018;-71
2023/09/22 20:55:18;;;;;;;0.63;0.60;;;;;;;;;;10376832;22;20089;-71
2023/09/22 20:59:18;;;;;;;2.35;0.57;;;;;;;;;;10376337;22;20006;-71
2023/09/22 21:03:20;;;;;;;3.25;0.65;;;;;;;;;;10377671;22;20121;-72
2023/09/22 21:07:21;;;;;;;1.73;0.77;;;;;;;;;;10378633;22;20598;-71
2023/09/22 21:11:21;;;;;;;0.70;0.70;;;;;;;;;;10379667;22;20045;-72
2023/09/22 21:15:21;;;;;;;1.02;0.73;;;;;;;;;;10380802;22;20007;-71
2023/09/22 21:19:21;;;;;;;1.45;0.75;;;;;;;;;;10380295;22;19995;-72
2023/09/22 21:23:21;;;;;;;0.75;0.70;;;;;;;;;;10383082;22;20038;-71
2023/09/22 21:27:22;;;;;;;1.20;0.77;;;;;;;;;;10378418;22;20061;-71
2023/09/22 21:31:22;;;;;;;1.88;0.70;;;;;;;;;;10378811;22;20015;-72
2023/09/22 21:35:22;;;;;;;2.97;0.60;;;;;;;;;;10381360;22;20049;-72
2023/09/22 21:39:23;;;;;;;1.20;0.70;;;;;;;;;;10375938;22;20007;-72
2023/09/22 21:43:23;;;;;;;1.48;0.65;;;;;;;;;;10383737;22;20269;-72
2023/09/22 21:47:23;;;;;;;0.80;0.68;;;;;;;;;;10384335;22;20069;-73
2023/09/22 21:51:23;;;;;;;1.95;0.80;;;;;;;;;;10379341;22;20085;-71
2023/09/22 21:55:24;;;;;;;0.60;0.60;;;;;;;;;;10382503;22;20003;-72
2023/09/22 21:59:24;;;;;;;0.60;0.60;;;;;;;;;;10381736;22;20220;-73
2023/09/22 22:03:24;;;;;;;0.50;0.50;;;;;;;;;;10380704;22;20118;-72
2023/09/22 22:07:30;;;;;;;2.23;0.60;;;;;;;;;;10386796;22;20007;-72
2023/09/22 22:11:30;;;;;;;0.50;0.50;;;;;;;;;;10390297;22;20003;-72
2023/09/22 22:15:31;;;;;;;0.50;0.50;;;;;;;;;;10392932;22;20019;-72
2023/09/22 22:19:32;;;;;;;0.82;0.52;;;;;;;;;;10390330;22;20003;-72
2023/09/22 22:23:33;;;;;;;0.45;0.45;;;;;;;;;;10387738;22;20296;-72
2023/09/22 22:27:33;;;;;;;0.55;0.55;;;;;;;;;;10387561;22;20313;-72
2023/09/22 22:31:33;;;;;;;2.05;0.52;;;;;;;;;;10379634;22;20011;-72
2023/09/22 22:35:37;;;;;;;0.63;0.63;;;;;;;;;;10381598;22;20007;-72
2023/09/22 22:39:38;;;;;;;0.50;0.50;;;;;;;;;;10387397;22;20295;-71
2023/09/22 22:43:39;;;;;;;0.60;0.60;;;;;;;;;;10383132;22;20031;-71
2023/09/22 22:47:39;;;;;;;0.70;0.60;;;;;;;;;;10382132;22;20130;-71
2023/09/22 22:51:41;;;;;;;0.93;0.60;;;;;;;;;;10383387;22;20003;-71
2023/09/22 22:55:41;;;;;;;1.50;0.57;;;;;;;;;;10382273;22;20073;-71
2023/09/22 22:59:41;;;;;;;0.75;0.70;;;;;;;;;;10381689;22;19999;-71
2023/09/22 23:03:42;;;;;;;2.10;0.68;;;;;;;;;;10377338;22;20015;-71
2023/09/22 23:07:42;;;;;;;0.50;0.50;;;;;;;;;;10377741;22;20009;-71
2023/09/22 23:11:43;;;;;;;2.05;0.60;;;;;;;;;;10379606;22;20246;-71
2023/09/22 23:15:44;;;;;;;1.25;0.50;;;;;;;;;;10378943;22;20122;-71
2023/09/22 23:19:45;;;;;;;1.13;0.50;;;;;;;;;;10382312;22;20057;-71
2023/09/22 23:23:45;;;;;;;0.40;0.40;;;;;;;;;;10378343;22;20022;-71
2023/09/22 23:27:45;;;;;;;0.47;0.47;;;;;;;;;;10377531;22;20003;-71
2023/09/22 23:31:45;;;;;;;0.43;0.43;;;;;;;;;;10377960;22;20090;-71
2023/09/22 23:35:46;;;;;;;1.40;0.50;;;;;;;;;;10375194;22;20015;-70
2023/09/22 23:39:46;;;;;;;0.60;0.60;;;;;;;;;;10378604;22;20030;-71
2023/09/22 23:43:47;;;;;;;0.55;0.55;;;;;;;;;;10377703;22;20046;-71